createdAt,value
2023-07-07T00:01:09.431Z,93.90
2023-07-07T00:04:31.463Z,94.10
2023-07-07T00:07:53.607Z,93.76
2023-07-07T00:11:15.288Z,93.53
2023-07-07T00:14:37.150Z,93.88
2023-07-07T00:18:00.409Z,94.08
2023-07-07T00:21:25.407Z,94.50
2023-07-07T00:24:47.010Z,94.66
2023-07-07T00:28:09.176Z,94.68
2023-07-07T00:31:31.848Z,95.29
2023-07-07T00:34:56.403Z,95.69
2023-07-07T00:38:19.106Z,95.89
2023-07-07T00:41:42.074Z,95.73
2023-07-07T00:45:19.536Z,96.45
2023-07-07T00:48:45.792Z,96.63
2023-07-07T00:52:09.879Z,96.60
2023-07-07T00:55:38.091Z,96.67
2023-07-07T00:59:04.288Z,95.39
2023-07-07T01:02:28.691Z,94.39
2023-07-07T01:05:52.807Z,93.97
2023-07-07T01:09:15.904Z,94.10
2023-07-07T01:12:37.687Z,95.24
2023-07-07T01:16:05.953Z,95.39
2023-07-07T01:19:58.047Z,94.52
2023-07-07T01:23:47.847Z,94.64
2023-07-07T01:27:47.597Z,93.32
2023-07-07T01:31:15.917Z,93.74
2023-07-07T01:34:38.159Z,95.03
2023-07-07T01:38:02.528Z,96.32
2023-07-07T01:41:32.815Z,95.74
2023-07-07T01:45:02.223Z,95.42
2023-07-07T01:48:32.963Z,95.65
2023-07-07T01:52:01.735Z,94.80
2023-07-07T01:55:27.624Z,94.98
2023-07-07T01:58:50.831Z,95.02
2023-07-07T02:02:12.996Z,95.69
2023-07-07T02:05:36.696Z,95.97
2023-07-07T02:08:58.494Z,94.93
2023-07-07T02:12:20.153Z,95.67
2023-07-07T02:15:42.551Z,95.28
2023-07-07T02:19:04.211Z,95.39
2023-07-07T02:22:27.292Z,95.74
2023-07-07T02:25:49.224Z,95.90
2023-07-07T02:29:10.968Z,96.29
2023-07-07T02:32:32.636Z,95.09
2023-07-07T02:35:54.417Z,96.54
2023-07-07T02:39:17.700Z,97.02
2023-07-07T02:42:40.239Z,97.56
2023-07-07T02:46:02.252Z,98.07
2023-07-07T02:49:24.109Z,98.41
2023-07-07T02:52:45.850Z,100.00
2023-07-07T02:56:09.242Z,100.00
2023-07-07T02:59:31.425Z,100.00
2023-07-07T03:02:53.609Z,100.00
2023-07-07T03:06:18.070Z,100.00
2023-07-07T03:09:39.792Z,100.00
2023-07-07T03:13:03.159Z,100.00
2023-07-07T03:16:31.952Z,100.00
2023-07-07T03:19:54.045Z,100.00
2023-07-07T03:23:16.351Z,100.00
2023-07-07T03:26:38.496Z,100.00
2023-07-07T03:30:01.795Z,99.91
2023-07-07T03:33:23.900Z,98.88
2023-07-07T03:36:45.773Z,97.37
2023-07-07T03:40:10.858Z,95.52
2023-07-07T03:43:35.042Z,94.36
2023-07-07T03:46:58.452Z,93.85
2023-07-07T03:50:20.405Z,93.17
2023-07-07T03:53:43.490Z,92.03
2023-07-07T03:57:05.936Z,90.92
2023-07-07T04:00:28.013Z,90.16
2023-07-07T04:03:51.375Z,89.81
2023-07-07T04:07:13.505Z,89.03
2023-07-07T04:10:35.515Z,88.15
2023-07-07T04:13:57.265Z,87.49
2023-07-07T04:17:19.201Z,87.09
2023-07-07T04:20:42.201Z,87.02
2023-07-07T04:24:04.995Z,85.79
2023-07-07T04:27:26.927Z,85.05
2023-07-07T04:30:52.869Z,84.79
2023-07-07T04:34:15.106Z,84.24
2023-07-07T04:37:38.509Z,82.63
2023-07-07T04:41:09.065Z,83.23
2023-07-07T04:44:30.826Z,82.79
2023-07-07T04:47:52.630Z,81.68
2023-07-07T04:51:14.997Z,81.01
2023-07-07T04:54:38.117Z,80.68
2023-07-07T04:58:00.257Z,81.39
2023-07-07T05:01:24.047Z,81.46
2023-07-07T05:04:46.140Z,81.36
2023-07-07T05:08:09.721Z,79.65
2023-07-07T05:11:35.227Z,79.51
2023-07-07T05:14:57.226Z,80.53
2023-07-07T05:18:19.186Z,80.02
2023-07-07T05:21:41.147Z,78.79
2023-07-07T05:25:03.550Z,79.19
2023-07-07T05:28:27.338Z,78.39
2023-07-07T05:31:49.322Z,78.39
2023-07-07T05:35:11.180Z,79.50
2023-07-07T05:38:33.146Z,78.58
2023-07-07T05:41:54.872Z,77.51
2023-07-07T05:45:18.250Z,77.93
2023-07-07T05:48:40.562Z,77.60
2023-07-07T05:52:02.592Z,76.29
2023-07-07T05:55:29.600Z,73.95
2023-07-07T05:58:53.093Z,74.15
2023-07-07T06:02:16.389Z,72.57
2023-07-07T06:05:38.596Z,71.63
2023-07-07T06:09:00.122Z,72.45
2023-07-07T06:12:21.825Z,71.74
2023-07-07T06:15:43.704Z,71.59
2023-07-07T06:19:08.140Z,71.49
2023-07-07T06:22:30.174Z,71.21
2023-07-07T06:25:52.193Z,70.98
2023-07-07T06:29:14.107Z,70.03
2023-07-07T06:32:36.179Z,70.02
2023-07-07T06:35:59.209Z,68.77
2023-07-07T06:39:21.361Z,67.67
2023-07-07T06:42:43.094Z,69.75
2023-07-07T06:46:05.190Z,68.98
2023-07-07T06:49:27.042Z,68.63
2023-07-07T06:52:50.330Z,67.95
2023-07-07T06:56:12.530Z,69.37
2023-07-07T06:59:35.430Z,70.20
2023-07-07T07:02:57.486Z,70.25
2023-07-07T07:06:19.393Z,70.29
2023-07-07T07:09:42.577Z,68.59
2023-07-07T07:13:04.561Z,67.86
2023-07-07T07:16:26.389Z,67.49
2023-07-07T07:19:48.105Z,65.33
2023-07-07T07:23:09.680Z,64.51
2023-07-07T07:26:32.681Z,65.76
2023-07-07T07:29:54.678Z,65.89
2023-07-07T07:33:21.095Z,65.30
2023-07-07T07:36:42.935Z,65.25
2023-07-07T07:40:05.484Z,65.05
2023-07-07T07:43:28.841Z,63.87
2023-07-07T07:46:53.236Z,62.29
2023-07-07T07:50:16.230Z,62.13
2023-07-07T07:53:38.189Z,59.77
2023-07-07T07:57:00.166Z,61.52
2023-07-07T08:00:23.484Z,61.41
2023-07-07T08:03:45.120Z,62.05
2023-07-07T08:07:07.881Z,62.56
2023-07-07T08:10:29.918Z,61.11
2023-07-07T08:13:52.007Z,61.86
2023-07-07T08:17:16.193Z,58.09
2023-07-07T08:20:38.496Z,59.53
2023-07-07T08:24:00.491Z,61.47
2023-07-07T08:30:49.732Z,60.20
2023-07-07T08:34:12.914Z,58.53
2023-07-07T08:37:35.809Z,59.02
2023-07-07T08:40:59.138Z,59.54
2023-07-07T08:44:24.757Z,59.78
2023-07-07T08:48:01.008Z,59.06
2023-07-07T08:51:29.799Z,57.73
2023-07-07T08:55:02.105Z,58.16
2023-07-07T08:58:32.328Z,58.27
2023-07-07T09:01:58.518Z,59.66
2023-07-07T09:05:34.075Z,56.90
2023-07-07T09:09:02.951Z,57.12
2023-07-07T09:12:34.230Z,59.12
2023-07-07T09:16:06.919Z,57.61
2023-07-07T09:19:33.875Z,58.43
2023-07-07T09:23:00.960Z,57.04
2023-07-07T09:26:33.634Z,57.60
2023-07-07T09:30:04.869Z,54.61
2023-07-07T09:33:27.534Z,56.25
2023-07-07T09:36:57.357Z,53.03
2023-07-07T09:40:24.037Z,54.51
2023-07-07T09:43:56.806Z,49.86
2023-07-07T09:47:27.105Z,53.95
2023-07-07T09:50:56.362Z,51.93
2023-07-07T09:54:21.866Z,54.13
2023-07-07T09:57:49.980Z,52.75
2023-07-07T10:01:13.208Z,51.63
2023-07-07T10:04:35.425Z,52.36
2023-07-07T10:07:58.534Z,53.75
2023-07-07T10:11:58.032Z,54.17
2023-07-07T10:15:14.595Z,54.41
2023-07-07T10:18:49.342Z,52.77
2023-07-07T10:22:17.491Z,51.87
2023-07-07T10:25:39.746Z,52.00
2023-07-07T10:29:04.671Z,50.97
2023-07-07T10:32:26.853Z,51.32
2023-07-07T10:35:50.160Z,51.28
2023-07-07T10:39:11.831Z,50.62
2023-07-07T10:42:34.676Z,49.58
2023-07-07T10:45:56.329Z,50.80
2023-07-07T10:49:26.034Z,53.44
2023-07-07T10:56:48.984Z,50.56
2023-07-07T11:00:31.674Z,51.12
2023-07-07T11:04:33.318Z,50.99
2023-07-07T11:08:02.531Z,51.74
2023-07-07T11:11:34.570Z,50.25
2023-07-07T11:15:05.114Z,47.76
2023-07-07T11:18:44.322Z,50.12
2023-07-07T11:22:19.909Z,48.73
2023-07-07T11:25:51.673Z,46.48
2023-07-07T11:29:21.577Z,48.56
2023-07-07T11:32:52.808Z,48.41
2023-07-07T11:36:38.622Z,47.00
2023-07-07T11:40:17.233Z,49.99
2023-07-07T11:44:02.544Z,48.72
2023-07-07T11:47:43.265Z,49.74
2023-07-07T11:51:25.323Z,47.92
2023-07-07T11:55:17.037Z,48.28
2023-07-07T11:58:48.934Z,49.85
2023-07-07T12:02:17.679Z,48.81
2023-07-07T12:05:42.766Z,50.79
2023-07-07T12:09:14.663Z,49.11
2023-07-07T12:12:41.053Z,50.33
2023-07-07T12:16:15.465Z,49.76
2023-07-07T12:19:42.534Z,49.21
2023-07-07T12:23:07.422Z,49.87
2023-07-07T12:26:34.894Z,48.56
2023-07-07T12:29:59.933Z,49.57
2023-07-07T12:33:22.928Z,48.34
2023-07-07T12:36:44.819Z,46.66
2023-07-07T12:40:18.115Z,45.42
2023-07-07T12:43:44.689Z,44.85
2023-07-07T12:47:20.698Z,46.09
2023-07-07T12:50:45.140Z,48.49
2023-07-07T12:54:06.904Z,49.89
2023-07-07T12:57:30.228Z,50.79
2023-07-07T13:01:07.626Z,49.70
2023-07-07T13:04:41.765Z,49.85
2023-07-07T13:08:04.215Z,51.60
2023-07-07T13:11:36.392Z,50.47
2023-07-07T13:15:07.897Z,49.67
2023-07-07T13:18:29.555Z,50.05
2023-07-07T13:21:53.531Z,50.78
2023-07-07T13:25:22.029Z,51.57
2023-07-07T13:28:44.018Z,51.66
2023-07-07T13:32:08.034Z,52.87
2023-07-07T13:35:30.129Z,51.39
2023-07-07T13:38:54.542Z,52.90
2023-07-07T13:42:26.825Z,50.42
2023-07-07T13:45:48.673Z,51.39
2023-07-07T13:49:16.112Z,52.56
2023-07-07T13:52:41.883Z,52.36
2023-07-07T13:56:04.354Z,52.17
2023-07-07T13:59:28.483Z,51.00
2023-07-07T14:02:51.677Z,49.23
2023-07-07T14:06:16.354Z,48.93
2023-07-07T14:09:41.213Z,48.53
2023-07-07T14:13:05.873Z,47.18
2023-07-07T14:16:34.292Z,45.42
2023-07-07T14:20:00.173Z,46.40
2023-07-07T14:23:23.872Z,45.34
2023-07-07T14:26:46.481Z,46.25
2023-07-07T14:30:16.880Z,45.26
2023-07-07T14:33:43.064Z,45.05
2023-07-07T14:37:06.654Z,45.52
2023-07-07T14:40:32.825Z,43.86
2023-07-07T14:43:54.535Z,44.22
2023-07-07T14:47:20.833Z,45.01
2023-07-07T14:50:42.863Z,45.96
2023-07-07T14:54:05.743Z,44.43
2023-07-07T14:57:29.886Z,45.63
2023-07-07T15:00:53.563Z,46.23
2023-07-07T15:04:17.325Z,45.86
2023-07-07T15:07:38.888Z,46.54
2023-07-07T15:11:03.681Z,45.79
2023-07-07T15:14:27.099Z,45.75
2023-07-07T15:17:48.975Z,47.03
2023-07-07T15:21:20.199Z,46.61
2023-07-07T15:24:42.022Z,45.28
2023-07-07T15:28:03.619Z,44.88
2023-07-07T15:31:27.558Z,45.93
2023-07-07T15:34:49.261Z,45.83
2023-07-07T15:39:06.186Z,45.29
2023-07-07T15:42:28.268Z,46.18
2023-07-07T15:45:54.631Z,45.92
2023-07-07T15:49:19.784Z,45.60
2023-07-07T15:52:41.666Z,45.64
2023-07-07T15:56:03.414Z,44.22
2023-07-07T15:59:26.475Z,44.30
2023-07-07T16:02:48.540Z,40.59
2023-07-07T16:06:13.195Z,40.53
2023-07-07T16:09:36.274Z,43.21
2023-07-07T16:12:58.006Z,40.94
2023-07-07T16:16:22.750Z,40.08
2023-07-07T16:19:45.498Z,38.72
2023-07-07T16:23:08.605Z,38.89
2023-07-07T16:26:32.935Z,38.54
2023-07-07T16:29:54.647Z,38.65
2023-07-07T16:33:16.642Z,38.71
2023-07-07T16:36:39.499Z,40.47
2023-07-07T16:40:04.699Z,39.01
2023-07-07T16:43:29.578Z,37.50
2023-07-07T16:46:51.715Z,37.13
2023-07-07T16:50:22.819Z,38.61
2023-07-07T16:53:44.561Z,39.58
2023-07-07T16:57:10.388Z,39.83
2023-07-07T17:00:38.906Z,39.12
2023-07-07T17:04:00.948Z,40.22
2023-07-07T17:07:22.768Z,41.00
2023-07-07T17:10:45.088Z,40.45
2023-07-07T17:14:08.470Z,39.70
2023-07-07T17:17:30.568Z,41.41
2023-07-07T17:20:52.402Z,41.62
2023-07-07T17:24:14.081Z,41.25
2023-07-07T17:27:35.861Z,41.43
2023-07-07T17:30:59.503Z,41.49
2023-07-07T17:34:21.687Z,42.55
2023-07-07T17:37:43.634Z,41.67
2023-07-07T17:41:10.898Z,41.86
2023-07-07T17:44:32.549Z,41.51
2023-07-07T17:47:56.045Z,40.74
2023-07-07T17:51:17.755Z,41.35
2023-07-07T17:54:39.641Z,41.53
2023-07-07T17:58:01.554Z,42.41
2023-07-07T18:01:23.777Z,42.48
2023-07-07T18:04:46.901Z,42.33
2023-07-07T18:08:12.885Z,42.41
2023-07-07T18:11:34.470Z,42.25
2023-07-07T18:14:56.349Z,43.19
2023-07-07T18:18:31.724Z,43.18
2023-07-07T18:22:03.517Z,43.53
2023-07-07T18:25:25.580Z,44.30
2023-07-07T18:28:47.386Z,45.17
2023-07-07T18:32:12.145Z,46.48
2023-07-07T18:39:01.241Z,48.53
2023-07-07T18:42:25.736Z,49.07
2023-07-07T18:45:47.465Z,50.34
2023-07-07T18:49:10.928Z,50.90
2023-07-07T18:52:32.941Z,51.53
2023-07-07T18:55:56.220Z,52.52
2023-07-07T18:59:20.850Z,53.17
2023-07-07T19:02:42.916Z,53.68
2023-07-07T19:06:04.865Z,54.56
2023-07-07T19:09:26.976Z,55.30
2023-07-07T19:12:49.978Z,56.07
2023-07-07T19:16:18.472Z,57.33
2023-07-07T19:19:40.297Z,57.30
2023-07-07T19:23:02.540Z,58.99
2023-07-07T19:26:27.737Z,59.31
2023-07-07T19:29:50.949Z,59.66
2023-07-07T19:33:18.055Z,61.50
2023-07-07T19:36:44.777Z,61.25
2023-07-07T19:40:18.474Z,63.38
2023-07-07T19:43:40.484Z,61.99
2023-07-07T19:47:03.912Z,63.34
2023-07-07T19:50:29.037Z,64.42
2023-07-07T19:53:52.433Z,65.49
2023-07-07T19:57:22.638Z,67.22
2023-07-07T20:00:44.236Z,66.44
2023-07-07T20:04:07.560Z,67.95
2023-07-07T20:07:29.402Z,68.24
2023-07-07T20:10:51.649Z,68.95
2023-07-07T20:14:13.755Z,69.76
2023-07-07T20:17:36.219Z,70.41
2023-07-07T20:20:59.439Z,70.90
2023-07-07T20:24:22.804Z,70.55
2023-07-07T20:27:47.239Z,71.16
2023-07-07T20:31:13.314Z,71.04
2023-07-07T20:34:35.165Z,70.77
2023-07-07T20:37:58.615Z,70.96
2023-07-07T20:41:21.069Z,70.58
2023-07-07T20:44:43.254Z,71.16
2023-07-07T20:48:05.805Z,71.43
2023-07-07T20:51:29.728Z,72.43
2023-07-07T20:54:52.906Z,72.37
2023-07-07T20:58:15.108Z,72.73
2023-07-07T21:01:36.940Z,75.25
2023-07-07T21:04:58.510Z,75.66
2023-07-07T21:08:20.397Z,76.25
2023-07-07T21:11:43.666Z,76.82
2023-07-07T21:15:06.312Z,77.35
2023-07-07T21:18:27.985Z,77.34
2023-07-07T21:21:49.769Z,78.30
2023-07-07T21:25:11.766Z,78.60
2023-07-07T21:28:34.972Z,79.71
2023-07-07T21:31:57.079Z,79.91
2023-07-07T21:35:19.310Z,79.47
2023-07-07T21:38:41.063Z,81.17
2023-07-07T21:45:29.553Z,81.97
2023-07-07T21:48:51.625Z,82.29
2023-07-07T21:52:15.928Z,82.93
2023-07-07T21:55:38.816Z,83.17
2023-07-07T21:59:11.686Z,85.16
2023-07-07T22:02:34.993Z,84.00
2023-07-07T22:05:56.933Z,84.94
2023-07-07T22:09:19.957Z,84.58
2023-07-07T22:12:41.902Z,84.30
2023-07-07T22:16:03.555Z,85.35
2023-07-07T22:19:26.659Z,85.02
2023-07-07T22:22:48.569Z,85.22
2023-07-07T22:26:15.718Z,85.71
2023-07-07T22:29:37.362Z,86.06
2023-07-07T22:32:59.284Z,85.52
2023-07-07T22:36:24.182Z,85.43
2023-07-07T22:39:46.087Z,86.72
2023-07-07T22:43:07.685Z,86.18
2023-07-07T22:46:32.452Z,86.93
2023-07-07T22:49:54.035Z,87.66
2023-07-07T22:53:17.437Z,87.58
2023-07-07T22:56:39.542Z,88.35
2023-07-07T23:00:01.636Z,88.07
2023-07-07T23:03:24.222Z,88.67
2023-07-07T23:06:46.969Z,88.22
2023-07-07T23:10:16.497Z,89.05
2023-07-07T23:13:38.118Z,88.97
2023-07-07T23:17:00.090Z,89.14
2023-07-07T23:20:24.551Z,88.86
2023-07-07T23:23:46.714Z,89.29
2023-07-07T23:27:12.505Z,89.49
2023-07-07T23:30:39.672Z,89.45
2023-07-07T23:34:01.546Z,90.12
2023-07-07T23:37:26.680Z,89.51
2023-07-07T23:40:48.684Z,89.64
2023-07-07T23:44:12.046Z,90.75
2023-07-07T23:47:33.906Z,89.97
2023-07-07T23:50:59.785Z,90.45
2023-07-07T23:54:22.012Z,91.13
2023-07-07T23:57:43.875Z,90.84
